createdAt,value
2022-08-17T00:02:26.501Z,12.80
2022-08-17T00:04:50.340Z,12.70
2022-08-17T00:07:20.089Z,13.05
2022-08-17T00:09:52.986Z,12.55
2022-08-17T00:12:41.925Z,12.37
2022-08-17T00:15:00.415Z,13.60
2022-08-17T00:17:33.649Z,12.83
2022-08-17T00:20:07.502Z,13.20
2022-08-17T00:22:40.898Z,14.90
2022-08-17T00:25:19.871Z,13.80
2022-08-17T00:27:52.854Z,14.05
2022-08-17T00:30:26.978Z,14.05
2022-08-17T00:33:12.189Z,13.38
2022-08-17T00:35:34.444Z,13.43
2022-08-17T00:38:09.274Z,13.45
2022-08-17T00:40:47.080Z,13.78
2022-08-17T00:43:44.375Z,14.25
2022-08-17T00:46:21.476Z,13.58
2022-08-17T00:48:54.898Z,13.85
2022-08-17T00:51:44.887Z,13.53
2022-08-17T00:54:41.650Z,14.50
2022-08-17T00:57:28.665Z,13.08
2022-08-17T01:00:09.281Z,14.53
2022-08-17T01:02:44.972Z,14.35
2022-08-17T01:05:21.477Z,14.75
2022-08-17T01:07:56.189Z,13.32
2022-08-17T01:11:00.334Z,15.03
2022-08-17T01:13:11.624Z,13.53
2022-08-17T01:15:56.224Z,13.60
2022-08-17T01:18:29.458Z,13.48
2022-08-17T01:21:06.796Z,13.28
2022-08-17T01:23:41.568Z,13.80
2022-08-17T01:26:14.684Z,14.00
2022-08-17T01:28:54.048Z,14.55
2022-08-17T01:31:22.622Z,14.50
2022-08-17T01:33:56.136Z,14.58
2022-08-17T01:36:29.166Z,14.65
2022-08-17T01:39:02.064Z,14.75
2022-08-17T01:44:09.728Z,15.40
2022-08-17T01:46:42.909Z,14.95
2022-08-17T01:49:16.359Z,15.07
2022-08-17T01:51:49.547Z,15.25
2022-08-17T01:54:22.809Z,15.45
2022-08-17T01:56:55.740Z,15.20
2022-08-17T01:59:28.776Z,16.17
2022-08-17T02:02:02.929Z,15.72
2022-08-17T02:04:37.472Z,14.20
2022-08-17T02:07:10.450Z,14.95
2022-08-17T02:09:44.178Z,14.50
2022-08-17T02:12:37.991Z,15.10
2022-08-17T02:14:54.620Z,15.32
2022-08-17T02:17:27.501Z,15.35
2022-08-17T02:20:00.913Z,15.85
2022-08-17T02:22:34.119Z,15.90
2022-08-17T02:25:09.604Z,14.80
2022-08-17T02:27:42.738Z,15.70
2022-08-17T02:30:58.956Z,15.93
2022-08-17T02:32:53.994Z,15.60
2022-08-17T02:35:26.864Z,15.35
2022-08-17T02:37:59.688Z,15.23
2022-08-17T02:40:35.671Z,15.35
2022-08-17T02:43:10.097Z,15.13
2022-08-17T02:45:44.450Z,14.45
2022-08-17T02:48:17.383Z,15.08
2022-08-17T02:50:51.983Z,13.85
2022-08-17T02:53:25.646Z,13.85
2022-08-17T02:55:58.852Z,13.32
2022-08-17T02:58:35.292Z,13.08
2022-08-17T03:01:09.150Z,13.85
2022-08-17T03:03:42.349Z,14.35
2022-08-17T03:06:15.126Z,13.35
2022-08-17T03:08:48.802Z,13.10
2022-08-17T03:11:22.662Z,13.68
2022-08-17T03:13:55.889Z,13.80
2022-08-17T03:16:29.016Z,13.25
2022-08-17T03:19:01.998Z,13.73
2022-08-17T03:21:35.294Z,13.65
2022-08-17T03:24:09.288Z,13.05
2022-08-17T03:26:43.053Z,13.83
2022-08-17T03:29:18.126Z,13.83
2022-08-17T03:31:52.627Z,14.93
2022-08-17T03:34:25.638Z,14.25
2022-08-17T03:36:58.549Z,14.20
2022-08-17T03:39:31.554Z,14.53
2022-08-17T03:42:31.352Z,13.38
2022-08-17T03:44:51.585Z,14.43
2022-08-17T03:47:44.339Z,14.40
2022-08-17T03:50:20.779Z,13.65
2022-08-17T03:53:11.455Z,14.83
2022-08-17T03:56:02.598Z,14.20
2022-08-17T03:58:37.264Z,14.07
2022-08-17T04:01:10.450Z,13.65
2022-08-17T04:03:43.602Z,13.85
2022-08-17T04:06:16.844Z,14.58
2022-08-17T04:08:49.985Z,14.23
2022-08-17T04:11:22.999Z,14.75
2022-08-17T04:13:57.117Z,13.72
2022-08-17T04:16:30.792Z,14.70
2022-08-17T04:19:05.237Z,13.88
2022-08-17T04:21:38.200Z,14.53
2022-08-17T04:24:11.045Z,14.83
2022-08-17T04:26:53.102Z,14.35
2022-08-17T04:29:18.315Z,14.60
2022-08-17T04:31:51.209Z,13.83
2022-08-17T04:34:25.448Z,13.78
2022-08-17T04:36:58.359Z,13.30
2022-08-17T04:39:33.831Z,13.88
2022-08-17T04:42:11.095Z,13.20
2022-08-17T04:44:44.383Z,12.95
2022-08-17T04:47:17.447Z,13.03
2022-08-17T04:49:50.509Z,12.00
2022-08-17T04:52:29.864Z,12.23
2022-08-17T04:54:58.200Z,12.53
2022-08-17T04:57:31.620Z,11.05
2022-08-17T05:00:09.036Z,10.70
2022-08-17T05:02:53.405Z,11.43
2022-08-17T05:08:03.666Z,11.45
2022-08-17T05:10:45.470Z,11.00
2022-08-17T05:13:18.394Z,12.45
2022-08-17T05:16:03.529Z,12.35
2022-08-17T05:18:39.160Z,13.32
2022-08-17T05:21:12.183Z,12.13
2022-08-17T05:23:47.187Z,13.85
2022-08-17T05:26:26.953Z,12.65
2022-08-17T05:29:00.456Z,12.68
2022-08-17T05:31:34.921Z,11.95
2022-08-17T05:34:07.781Z,12.98
2022-08-17T05:36:43.907Z,13.80
2022-08-17T05:39:17.440Z,12.73
2022-08-17T05:41:50.274Z,12.90
2022-08-17T05:44:23.759Z,11.25
2022-08-17T05:46:57.091Z,12.37
2022-08-17T05:49:30.988Z,11.60
2022-08-17T05:52:22.767Z,11.57
2022-08-17T05:55:18.203Z,11.50
2022-08-17T05:58:24.433Z,12.07
2022-08-17T06:01:04.781Z,13.50
2022-08-17T06:04:00.122Z,11.30
2022-08-17T06:06:46.882Z,12.20
2022-08-17T06:09:42.370Z,12.23
2022-08-17T06:12:49.142Z,13.22
2022-08-17T06:16:04.694Z,14.38
2022-08-17T06:18:52.850Z,14.35
2022-08-17T06:21:27.450Z,13.95
2022-08-17T06:24:38.252Z,12.58
2022-08-17T06:27:45.155Z,12.70
2022-08-17T06:30:57.597Z,12.65
2022-08-17T06:33:13.377Z,12.70
2022-08-17T06:36:19.717Z,13.72
2022-08-17T06:39:02.721Z,12.78
2022-08-17T06:44:43.434Z,12.13
2022-08-17T06:47:01.444Z,12.50
2022-08-17T06:49:55.199Z,11.95
2022-08-17T06:52:46.407Z,11.57
2022-08-17T06:55:19.720Z,12.10
2022-08-17T06:57:56.852Z,10.85
2022-08-17T07:00:36.269Z,12.55
2022-08-17T07:03:18.733Z,10.23
2022-08-17T07:06:01.562Z,11.73
2022-08-17T07:09:13.065Z,11.53
2022-08-17T07:12:15.309Z,11.25
2022-08-17T07:15:05.885Z,11.65
2022-08-17T07:17:47.357Z,9.40
2022-08-17T07:20:20.813Z,9.23
2022-08-17T07:23:07.156Z,9.03
2022-08-17T07:25:40.489Z,8.30
2022-08-17T07:28:14.108Z,9.30
2022-08-17T07:30:53.498Z,9.77
2022-08-17T07:33:30.738Z,9.55
2022-08-17T07:36:04.725Z,8.78
2022-08-17T07:38:40.489Z,10.55
2022-08-17T07:41:14.220Z,9.45
2022-08-17T07:43:52.872Z,10.10
2022-08-17T07:46:54.426Z,10.25
2022-08-17T07:49:38.805Z,9.43
2022-08-17T07:52:48.261Z,9.43
2022-08-17T07:54:51.091Z,10.50
2022-08-17T07:57:34.067Z,8.28
2022-08-17T08:00:16.284Z,9.37
2022-08-17T08:02:51.512Z,9.93
2022-08-17T08:05:46.633Z,10.72
2022-08-17T08:08:07.086Z,11.28
2022-08-17T08:10:45.498Z,9.53
2022-08-17T08:13:25.316Z,10.13
2022-08-17T08:16:30.711Z,10.75
2022-08-17T08:19:06.213Z,9.85
2022-08-17T08:21:52.889Z,10.43
2022-08-17T08:24:51.850Z,11.33
2022-08-17T08:28:09.030Z,11.30
2022-08-17T08:30:47.316Z,9.25
2022-08-17T08:33:25.527Z,9.08
2022-08-17T08:36:14.668Z,10.78
2022-08-17T08:38:57.062Z,10.03
2022-08-17T08:41:52.707Z,9.08
2022-08-17T08:45:00.718Z,9.83
2022-08-17T08:48:06.017Z,12.05
2022-08-17T08:51:03.368Z,8.98
2022-08-17T08:53:49.555Z,6.60
2022-08-17T08:57:23.907Z,7.37
2022-08-17T08:59:54.146Z,8.90
2022-08-17T09:02:44.713Z,10.08
2022-08-17T09:05:54.394Z,8.45
2022-08-17T09:08:55.796Z,7.60
2022-08-17T09:11:36.201Z,7.45
2022-08-17T09:14:45.431Z,6.83
2022-08-17T09:17:18.434Z,7.97
2022-08-17T09:20:08.105Z,7.85
2022-08-17T09:22:45.670Z,7.92
2022-08-17T09:25:32.263Z,7.33
2022-08-17T09:28:09.603Z,7.40
2022-08-17T09:30:53.855Z,7.22
2022-08-17T09:36:06.964Z,7.33
2022-08-17T09:39:07.028Z,8.98
2022-08-17T09:41:48.906Z,8.83
2022-08-17T09:44:30.318Z,8.53
2022-08-17T09:47:30.923Z,7.62
2022-08-17T09:50:08.385Z,7.72
2022-08-17T09:52:42.321Z,8.48
2022-08-17T09:58:11.033Z,7.92
2022-08-17T10:00:48.750Z,8.85
2022-08-17T10:04:00.783Z,7.92
2022-08-17T10:06:38.296Z,7.97
2022-08-17T10:09:22.754Z,7.83
2022-08-17T10:12:19.754Z,7.65
2022-08-17T10:15:08.159Z,8.65
2022-08-17T10:17:56.683Z,7.60
2022-08-17T10:20:48.971Z,8.18
2022-08-17T10:23:46.314Z,7.65
2022-08-17T10:26:25.249Z,7.70
2022-08-17T10:29:08.184Z,7.50
2022-08-17T10:31:51.416Z,7.45
2022-08-17T10:35:00.347Z,7.67
2022-08-17T10:37:41.578Z,7.92
2022-08-17T10:40:49.605Z,7.20
2022-08-17T10:43:58.907Z,7.55
2022-08-17T10:46:57.819Z,7.53
2022-08-17T10:49:34.552Z,7.08
2022-08-17T10:52:30.893Z,8.03
2022-08-17T10:55:18.219Z,6.42
2022-08-17T10:57:53.506Z,6.62
2022-08-17T11:00:46.686Z,5.67
2022-08-17T11:03:25.517Z,7.35
2022-08-17T11:06:17.908Z,7.97
2022-08-17T11:09:47.603Z,6.12
2022-08-17T11:12:35.939Z,6.12
2022-08-17T11:15:34.956Z,5.83
2022-08-17T11:18:45.281Z,6.45
2022-08-17T11:22:06.186Z,6.30
2022-08-17T11:24:45.919Z,7.08
2022-08-17T11:27:31.589Z,7.85
2022-08-17T11:30:17.340Z,7.00
2022-08-17T11:32:54.433Z,7.42
2022-08-17T11:35:41.043Z,6.05
2022-08-17T11:38:23.316Z,6.25
2022-08-17T11:41:15.819Z,5.40
2022-08-17T11:43:59.438Z,6.00
2022-08-17T11:46:59.170Z,6.85
2022-08-17T11:50:27.243Z,6.45
2022-08-17T11:52:58.106Z,7.37
2022-08-17T11:55:44.334Z,8.38
2022-08-17T11:58:36.342Z,8.38
2022-08-17T12:01:16.626Z,6.78
2022-08-17T12:03:54.056Z,7.05
2022-08-17T12:06:32.419Z,7.58
2022-08-17T12:09:12.599Z,7.40
2022-08-17T12:12:12.909Z,8.15
2022-08-17T12:15:08.515Z,8.10
2022-08-17T12:17:33.606Z,8.25
2022-08-17T12:19:50.089Z,7.97
2022-08-17T12:22:33.625Z,7.50
2022-08-17T12:25:31.685Z,6.90
2022-08-17T12:28:07.796Z,7.30
2022-08-17T12:30:41.937Z,6.28
2022-08-17T12:33:25.360Z,7.27
2022-08-17T12:35:55.073Z,7.28
2022-08-17T12:38:33.332Z,7.28
2022-08-17T12:41:03.189Z,6.50
2022-08-17T12:43:36.105Z,6.70
2022-08-17T12:46:14.881Z,10.73
2022-08-17T12:48:58.837Z,7.45
2022-08-17T12:51:19.314Z,8.00
2022-08-17T12:53:55.957Z,7.23
2022-08-17T12:56:30.198Z,7.37
2022-08-17T12:59:03.256Z,7.83
2022-08-17T13:01:39.131Z,6.10
2022-08-17T13:04:15.198Z,7.42
2022-08-17T13:06:52.126Z,7.58
2022-08-17T13:09:35.868Z,7.12
2022-08-17T13:12:06.459Z,6.87
2022-08-17T13:14:47.206Z,9.40
2022-08-17T13:17:30.654Z,7.75
2022-08-17T13:20:06.923Z,7.35
2022-08-17T13:22:43.179Z,7.95
2022-08-17T13:25:18.528Z,7.97
2022-08-17T13:27:54.088Z,10.45
2022-08-17T13:30:32.479Z,7.87
2022-08-17T13:33:06.967Z,8.55
2022-08-17T13:35:50.448Z,8.48
2022-08-17T13:38:47.072Z,7.58
2022-08-17T13:41:39.213Z,7.58
2022-08-17T13:44:39.615Z,7.17
2022-08-17T13:47:20.775Z,7.42
2022-08-17T13:49:55.620Z,8.35
2022-08-17T13:52:41.459Z,6.90
2022-08-17T13:55:22.690Z,7.72
2022-08-17T13:58:06.763Z,7.50
2022-08-17T14:00:36.583Z,13.22
2022-08-17T14:03:09.729Z,7.28
2022-08-17T14:05:42.715Z,7.17
2022-08-17T14:08:17.791Z,7.57
2022-08-17T14:10:55.242Z,7.37
2022-08-17T14:13:29.036Z,7.40
2022-08-17T14:16:02.168Z,7.05
2022-08-17T14:18:55.850Z,7.15
2022-08-17T14:21:11.313Z,6.78
2022-08-17T14:23:52.675Z,6.95
2022-08-17T14:26:19.570Z,7.28
2022-08-17T14:28:56.179Z,6.83
2022-08-17T14:31:27.991Z,7.28
2022-08-17T14:34:01.192Z,7.75
2022-08-17T14:36:34.853Z,7.00
2022-08-17T14:39:08.088Z,7.67
2022-08-17T14:41:42.718Z,7.08
2022-08-17T14:44:15.769Z,7.03
2022-08-17T14:46:50.254Z,7.93
2022-08-17T14:49:23.134Z,8.03
2022-08-17T14:51:56.043Z,8.50
2022-08-17T14:54:34.311Z,8.58
2022-08-17T14:57:23.262Z,8.25
2022-08-17T14:59:40.421Z,8.13
2022-08-17T15:02:14.022Z,8.33
2022-08-17T15:04:48.248Z,8.70
2022-08-17T15:07:25.131Z,8.43
2022-08-17T15:10:00.880Z,8.78
2022-08-17T15:12:34.806Z,9.23
2022-08-17T15:15:10.471Z,7.67
2022-08-17T15:17:45.997Z,9.45
2022-08-17T15:20:24.028Z,11.12
2022-08-17T15:22:57.785Z,8.45
2022-08-17T15:28:05.346Z,8.98
2022-08-17T15:30:38.600Z,8.58
2022-08-17T15:33:18.006Z,8.38
2022-08-17T15:35:54.980Z,8.15
2022-08-17T15:38:28.919Z,8.70
2022-08-17T15:41:02.742Z,8.25
2022-08-17T15:43:38.759Z,8.48
2022-08-17T15:46:21.459Z,8.78
2022-08-17T15:48:59.422Z,8.08
2022-08-17T15:51:35.869Z,9.45
2022-08-17T15:54:19.067Z,9.05
2022-08-17T15:56:46.724Z,8.95
2022-08-17T15:59:19.606Z,8.98
2022-08-17T16:03:13.848Z,21.10
2022-08-17T16:04:31.046Z,11.43
2022-08-17T16:07:02.719Z,9.28
2022-08-17T16:09:39.246Z,8.55
2022-08-17T16:12:17.023Z,9.13
2022-08-17T16:14:53.576Z,8.50
2022-08-17T16:17:39.165Z,8.83
2022-08-17T16:20:01.480Z,8.53
2022-08-17T16:22:38.277Z,8.95
2022-08-17T16:25:19.081Z,9.53
2022-08-17T16:27:53.841Z,8.90
2022-08-17T16:30:30.266Z,12.43
2022-08-17T16:33:04.210Z,9.73
2022-08-17T16:35:37.160Z,9.75
2022-08-17T16:38:11.172Z,10.13
2022-08-17T16:40:44.293Z,10.18
2022-08-17T16:43:17.605Z,10.97
2022-08-17T16:45:52.228Z,10.50
2022-08-17T16:48:25.522Z,11.03
2022-08-17T16:51:03.485Z,10.88
2022-08-17T16:53:34.463Z,10.93
2022-08-17T16:56:07.710Z,11.73
2022-08-17T16:58:40.961Z,11.50
2022-08-17T17:01:16.119Z,11.85
2022-08-17T17:03:58.062Z,12.73
2022-08-17T17:06:55.446Z,11.83
2022-08-17T17:09:32.455Z,11.35
2022-08-17T17:12:09.527Z,12.63
2022-08-17T17:14:46.260Z,11.55
2022-08-17T17:17:35.992Z,11.68
2022-08-17T17:20:22.110Z,11.85
2022-08-17T17:23:02.451Z,11.97
2022-08-17T17:25:49.012Z,11.55
2022-08-17T17:29:09.243Z,11.50
2022-08-17T17:31:49.884Z,11.88
2022-08-17T17:34:23.466Z,12.80
2022-08-17T17:36:59.309Z,15.03
2022-08-17T17:39:55.196Z,23.45
2022-08-17T17:42:31.067Z,15.32
2022-08-17T17:45:17.563Z,13.15
2022-08-17T17:47:53.943Z,49.03
2022-08-17T17:50:41.062Z,16.27
2022-08-17T17:53:22.610Z,13.43
2022-08-17T17:56:06.651Z,12.63
2022-08-17T17:59:11.205Z,12.07
2022-08-17T18:02:10.061Z,12.45
2022-08-17T18:04:51.370Z,12.18
2022-08-17T18:07:37.863Z,11.73
2022-08-17T18:10:31.680Z,11.83
2022-08-17T18:13:50.908Z,10.63
2022-08-17T18:16:25.329Z,11.08
2022-08-17T18:18:58.264Z,12.35
2022-08-17T18:21:42.147Z,11.33
2022-08-17T18:24:15.873Z,11.05
2022-08-17T18:26:53.401Z,10.90
2022-08-17T18:29:45.874Z,9.98
2022-08-17T18:32:42.340Z,10.28
2022-08-17T18:35:24.117Z,10.65
2022-08-17T18:41:05.057Z,10.78
2022-08-17T18:43:52.895Z,10.48
2022-08-17T18:46:30.599Z,11.30
2022-08-17T18:49:08.751Z,10.55
2022-08-17T18:51:44.348Z,11.38
2022-08-17T18:54:27.739Z,11.30
2022-08-17T18:57:02.490Z,11.23
2022-08-17T18:59:47.453Z,11.63
2022-08-17T19:02:43.327Z,10.72
2022-08-17T19:05:11.008Z,11.95
2022-08-17T19:07:48.201Z,11.85
2022-08-17T19:10:29.114Z,12.13
2022-08-17T19:13:13.961Z,11.78
2022-08-17T19:16:14.360Z,11.60
2022-08-17T19:18:41.770Z,11.43
2022-08-17T19:21:23.144Z,12.05
2022-08-17T19:24:19.976Z,11.05
2022-08-17T19:27:03.323Z,11.20
2022-08-17T19:30:07.802Z,11.90
2022-08-17T19:32:38.431Z,11.38
2022-08-17T19:35:17.352Z,12.75
2022-08-17T19:38:04.551Z,12.43
2022-08-17T19:40:53.990Z,11.93
2022-08-17T19:43:53.885Z,13.22
2022-08-17T19:46:37.375Z,12.55
2022-08-17T19:49:33.415Z,12.05
2022-08-17T19:52:16.580Z,12.65
2022-08-17T19:55:00.685Z,12.63
2022-08-17T19:58:18.130Z,12.23
2022-08-17T20:00:54.821Z,13.48
2022-08-17T20:03:53.426Z,12.93
2022-08-17T20:06:27.617Z,12.95
2022-08-17T20:09:15.325Z,12.43
2022-08-17T20:11:57.911Z,11.97
2022-08-17T20:14:41.701Z,12.23
2022-08-17T20:17:16.408Z,12.88
2022-08-17T20:19:59.524Z,12.83
2022-08-17T20:22:46.719Z,11.50
2022-08-17T20:25:36.806Z,12.30
2022-08-17T20:28:29.817Z,13.03
2022-08-17T20:31:05.038Z,12.40
2022-08-17T20:33:39.729Z,12.63
2022-08-17T20:36:22.739Z,12.40
2022-08-17T20:38:58.689Z,13.15
2022-08-17T20:41:33.231Z,13.35
2022-08-17T20:44:07.700Z,13.40
2022-08-17T20:46:45.377Z,12.47
2022-08-17T20:49:32.063Z,13.15
2022-08-17T20:52:13.737Z,12.18
2022-08-17T20:54:53.968Z,12.98
2022-08-17T20:57:40.197Z,13.10
2022-08-17T21:00:32.910Z,13.68
2022-08-17T21:03:28.480Z,13.50
2022-08-17T21:06:17.645Z,12.43
2022-08-17T21:08:54.586Z,12.65
2022-08-17T21:11:57.134Z,12.58
2022-08-17T21:14:29.309Z,12.95
2022-08-17T21:17:38.555Z,13.62
2022-08-17T21:20:32.608Z,12.58
2022-08-17T21:23:33.688Z,13.45
2022-08-17T21:26:50.130Z,13.43
2022-08-17T21:29:30.811Z,13.43
2022-08-17T21:32:12.208Z,13.15
2022-08-17T21:35:07.097Z,12.95
2022-08-17T21:37:48.913Z,12.98
2022-08-17T21:40:31.215Z,13.32
2022-08-17T21:43:17.475Z,14.83
2022-08-17T21:46:06.479Z,14.38
2022-08-17T21:48:49.947Z,13.50
2022-08-17T21:51:30.396Z,13.98
2022-08-17T21:54:25.963Z,13.95
2022-08-17T21:56:59.573Z,14.00
2022-08-17T21:59:38.905Z,14.28
2022-08-17T22:02:25.660Z,13.80
2022-08-17T22:05:11.879Z,14.30
2022-08-17T22:07:50.917Z,13.25
2022-08-17T22:10:39.795Z,14.00
2022-08-17T22:13:22.417Z,13.60
2022-08-17T22:16:29.509Z,13.32
2022-08-17T22:18:53.844Z,14.47
2022-08-17T22:21:27.081Z,13.28
2022-08-17T22:24:20.917Z,12.82
2022-08-17T22:27:13.090Z,13.27
2022-08-17T22:30:01.091Z,12.35
2022-08-17T22:32:47.313Z,13.60
2022-08-17T22:35:31.656Z,14.05
2022-08-17T22:38:26.527Z,12.90
2022-08-17T22:41:09.750Z,13.80
2022-08-17T22:43:44.683Z,12.07
2022-08-17T22:46:17.678Z,12.53
2022-08-17T22:48:56.143Z,12.15
2022-08-17T22:51:31.351Z,12.95
2022-08-17T22:54:25.878Z,12.50
2022-08-17T22:57:19.875Z,12.80
2022-08-17T22:59:56.143Z,12.60
2022-08-17T23:02:32.538Z,11.57
2022-08-17T23:05:19.049Z,12.65
2022-08-17T23:07:53.626Z,12.78
2022-08-17T23:10:28.605Z,12.93
2022-08-17T23:13:03.243Z,12.88
2022-08-17T23:15:37.837Z,12.65
2022-08-17T23:20:43.472Z,14.13
2022-08-17T23:23:18.797Z,13.45
2022-08-17T23:25:51.290Z,12.43
2022-08-17T23:28:24.164Z,12.07
2022-08-17T23:30:56.933Z,13.50
2022-08-17T23:33:36.146Z,13.78
2022-08-17T23:36:12.557Z,14.55
2022-08-17T23:38:48.652Z,15.03
2022-08-17T23:41:23.393Z,14.65
2022-08-17T23:43:56.279Z,15.25
2022-08-17T23:46:29.266Z,14.67
2022-08-17T23:49:03.523Z,13.88
2022-08-17T23:51:41.412Z,13.83
2022-08-17T23:54:27.699Z,14.35
2022-08-17T23:57:01.569Z,14.40
2022-08-17T23:59:37.029Z,14.95
